createdAt,value
2019-04-21T00:02:09.407Z,15.30
2019-04-21T00:04:53.173Z,15.30
2019-04-21T00:07:31.870Z,15.30
2019-04-21T00:10:06.444Z,15.30
2019-04-21T00:12:34.467Z,15.30
2019-04-21T00:15:03.551Z,15.10
2019-04-21T00:17:24.869Z,15.00
2019-04-21T00:20:09.207Z,14.90
2019-04-21T00:22:44.024Z,14.60
2019-04-21T00:25:21.338Z,14.40
2019-04-21T00:30:39.874Z,14.30
2019-04-21T00:32:59.968Z,14.40
2019-04-21T00:35:27.474Z,14.50
2019-04-21T00:38:18.365Z,14.60
2019-04-21T00:40:56.636Z,14.70
2019-04-21T00:43:19.589Z,14.50
2019-04-21T00:45:44.667Z,14.50
2019-04-21T00:48:32.945Z,14.40
2019-04-21T00:51:16.407Z,14.40
2019-04-21T00:53:45.548Z,14.50
2019-04-21T00:56:18.277Z,14.50
2019-04-21T00:58:47.487Z,14.50
2019-04-21T01:01:15.230Z,14.40
2019-04-21T01:03:51.991Z,14.30
2019-04-21T01:06:24.432Z,14.40
2019-04-21T01:08:46.816Z,14.40
2019-04-21T01:14:05.839Z,14.20
2019-04-21T01:16:33.158Z,14.20
2019-04-21T01:19:02.267Z,14.10
2019-04-21T01:21:14.672Z,14.10
2019-04-21T01:23:46.479Z,13.90
2019-04-21T01:26:31.188Z,13.70
2019-04-21T01:29:07.033Z,13.60
2019-04-21T01:31:42.154Z,13.50
2019-04-21T01:34:14.953Z,13.50
2019-04-21T01:36:45.826Z,13.40
2019-04-21T01:39:21.317Z,13.40
2019-04-21T01:41:57.587Z,13.40
2019-04-21T01:46:58.443Z,13.00
2019-04-21T01:49:26.378Z,13.10
2019-04-21T01:52:20.534Z,13.20
2019-04-21T01:55:14.036Z,13.20
2019-04-21T01:58:15.312Z,13.20
2019-04-21T02:00:51.964Z,13.10
2019-04-21T02:03:48.712Z,13.00
2019-04-21T02:06:15.013Z,13.00
2019-04-21T02:08:34.598Z,12.80
2019-04-21T02:11:11.273Z,12.60
2019-04-21T02:13:50.213Z,12.60
2019-04-21T02:16:12.465Z,12.70
2019-04-21T02:18:45.344Z,12.60
2019-04-21T02:21:10.868Z,12.70
2019-04-21T02:23:54.355Z,12.80
2019-04-21T02:26:23.829Z,12.90
2019-04-21T02:29:03.306Z,13.10
2019-04-21T02:31:39.658Z,13.00
2019-04-21T02:34:11.350Z,12.80
2019-04-21T02:37:05.428Z,12.80
2019-04-21T02:41:51.706Z,12.60
2019-04-21T02:44:16.765Z,12.60
2019-04-21T02:46:46.294Z,12.60
2019-04-21T02:49:45.183Z,12.70
2019-04-21T02:52:01.244Z,12.60
2019-04-21T02:57:01.306Z,12.60
2019-04-21T02:59:42.289Z,12.70
2019-04-21T03:02:33.547Z,12.60
2019-04-21T03:08:25.667Z,12.50
2019-04-21T03:10:49.974Z,12.30
2019-04-21T03:20:50.992Z,11.90
2019-04-21T03:26:03.488Z,11.80
2019-04-21T03:28:33.900Z,11.90
2019-04-21T03:31:25.253Z,12.00
2019-04-21T03:36:32.786Z,12.00
2019-04-21T03:38:37.703Z,12.00
2019-04-21T03:41:10.717Z,11.90
2019-04-21T03:43:44.570Z,12.00
2019-04-21T03:46:19.473Z,12.00
2019-04-21T03:48:51.698Z,12.00
2019-04-21T03:53:48.120Z,11.80
2019-04-21T03:56:42.443Z,11.60
2019-04-21T03:58:59.832Z,11.40
2019-04-21T04:02:08.743Z,11.30
2019-04-21T04:04:49.185Z,11.20
2019-04-21T04:07:45.921Z,11.10
2019-04-21T04:10:08.347Z,11.10
2019-04-21T04:12:40.847Z,11.10
2019-04-21T04:15:15.783Z,11.10
2019-04-21T04:17:40.702Z,11.10
2019-04-21T04:20:22.477Z,10.90
2019-04-21T04:25:20.867Z,10.80
2019-04-21T04:27:59.756Z,10.80
2019-04-21T04:32:59.385Z,10.80
2019-04-21T04:35:35.356Z,10.90
2019-04-21T04:38:03.362Z,10.90
2019-04-21T04:40:44.869Z,10.90
2019-04-21T04:43:19.347Z,11.10
2019-04-21T04:45:50.658Z,11.10
2019-04-21T04:48:23.724Z,11.00
2019-04-21T04:50:57.052Z,11.00
2019-04-21T04:53:38.863Z,11.10
2019-04-21T04:55:54.711Z,11.20
2019-04-21T04:58:56.272Z,11.10
2019-04-21T05:01:21.447Z,11.10
2019-04-21T05:03:47.380Z,10.90
2019-04-21T05:16:44.635Z,10.70
2019-04-21T05:19:10.179Z,10.70
2019-04-21T05:21:34.262Z,10.60
2019-04-21T05:23:56.971Z,10.60
2019-04-21T05:26:22.075Z,10.60
2019-04-21T05:28:55.541Z,10.60
2019-04-21T05:31:56.942Z,10.60
2019-04-21T05:34:42.662Z,10.60
2019-04-21T05:37:21.959Z,10.60
2019-04-21T05:39:51.108Z,10.60
2019-04-21T05:42:18.731Z,10.60
2019-04-21T05:47:39.625Z,10.60
2019-04-21T05:50:13.389Z,10.60
2019-04-21T05:52:53.502Z,10.70
2019-04-21T05:58:03.646Z,10.60
2019-04-21T06:00:52.894Z,10.60
2019-04-21T06:03:10.103Z,10.60
2019-04-21T06:05:47.333Z,10.70
2019-04-21T06:08:13.467Z,10.80
2019-04-21T06:10:50.829Z,10.90
2019-04-21T06:13:31.533Z,11.10
2019-04-21T06:15:56.961Z,11.10
2019-04-21T06:18:32.481Z,11.20
2019-04-21T06:20:54.606Z,11.20
2019-04-21T06:23:24.095Z,11.20
2019-04-21T06:26:08.733Z,11.30
2019-04-21T06:28:38.018Z,11.30
2019-04-21T06:31:31.771Z,11.30
2019-04-21T06:36:31.520Z,11.10
2019-04-21T06:39:06.405Z,11.20
2019-04-21T06:44:16.555Z,11.20
2019-04-21T06:47:13.900Z,11.30
2019-04-21T06:49:17.342Z,11.40
2019-04-21T06:51:57.671Z,11.50
2019-04-21T06:54:32.364Z,11.50
2019-04-21T06:56:58.455Z,11.50
2019-04-21T06:59:26.552Z,11.60
2019-04-21T07:04:39.551Z,11.80
2019-04-21T07:07:05.294Z,11.90
2019-04-21T07:09:36.126Z,12.00
2019-04-21T07:12:06.366Z,12.00
2019-04-21T07:15:02.005Z,12.20
2019-04-21T07:17:17.913Z,12.30
2019-04-21T07:19:49.938Z,12.30
2019-04-21T07:22:24.476Z,12.40
2019-04-21T07:24:54.064Z,12.50
2019-04-21T07:27:28.960Z,12.60
2019-04-21T07:29:58.499Z,12.60
2019-04-21T07:32:31.273Z,12.70
2019-04-21T07:35:04.783Z,12.80
2019-04-21T07:37:36.622Z,13.00
2019-04-21T07:40:01.649Z,13.10
2019-04-21T07:42:32.852Z,13.20
2019-04-21T07:45:03.357Z,13.40
2019-04-21T07:47:55.115Z,13.50
2019-04-21T07:50:35.196Z,13.60
2019-04-21T07:53:14.772Z,13.60
2019-04-21T07:58:14.585Z,13.80
2019-04-21T08:00:51.441Z,13.90
2019-04-21T08:03:21.954Z,14.10
2019-04-21T08:08:23.407Z,14.50
2019-04-21T08:10:57.347Z,14.70
2019-04-21T08:13:34.561Z,14.70
2019-04-21T08:15:59.539Z,14.90
2019-04-21T08:18:35.360Z,14.90
2019-04-21T08:21:07.202Z,15.00
2019-04-21T08:23:37.100Z,15.00
2019-04-21T08:26:07.718Z,15.20
2019-04-21T08:28:45.757Z,15.30
2019-04-21T08:31:14.462Z,15.40
2019-04-21T08:36:24.648Z,15.70
2019-04-21T08:38:53.982Z,15.70
2019-04-21T08:41:36.144Z,15.70
2019-04-21T08:43:51.577Z,15.70
2019-04-21T08:46:46.064Z,15.80
2019-04-21T08:49:04.278Z,15.90
2019-04-21T08:51:33.963Z,15.90
2019-04-21T08:54:09.546Z,16.10
2019-04-21T08:57:06.386Z,16.20
2019-04-21T08:59:51.818Z,16.20
2019-04-21T09:02:35.125Z,16.30
2019-04-21T09:05:09.562Z,16.40
2019-04-21T09:07:41.707Z,16.60
2019-04-21T09:10:09.361Z,16.80
2019-04-21T09:12:43.251Z,16.80
2019-04-21T09:15:13.866Z,16.80
2019-04-21T09:17:43.783Z,16.90
2019-04-21T09:20:26.612Z,17.20
2019-04-21T09:22:54.448Z,17.30
2019-04-21T09:25:26.959Z,17.40
2019-04-21T09:27:55.288Z,17.50
2019-04-21T09:30:13.010Z,17.70
2019-04-21T09:32:44.596Z,17.90
2019-04-21T09:35:17.365Z,18.00
2019-04-21T09:37:53.452Z,18.20
2019-04-21T09:40:29.107Z,18.30
2019-04-21T09:42:58.741Z,18.30
2019-04-21T09:45:24.442Z,18.50
2019-04-21T09:48:02.957Z,18.40
2019-04-21T09:50:29.481Z,18.40
2019-04-21T09:53:10.258Z,18.50
2019-04-21T09:55:42.195Z,18.60
2019-04-21T09:58:13.546Z,18.70
2019-04-21T10:00:46.150Z,18.70
2019-04-21T10:03:12.463Z,18.80
2019-04-21T10:05:41.669Z,18.90
2019-04-21T10:08:12.541Z,18.90
2019-04-21T10:10:44.227Z,18.90
2019-04-21T10:13:15.094Z,19.00
2019-04-21T10:15:48.530Z,19.20
2019-04-21T10:18:21.531Z,19.30
2019-04-21T10:20:52.108Z,19.30
2019-04-21T10:23:23.308Z,19.30
2019-04-21T10:25:54.675Z,19.40
2019-04-21T10:28:26.910Z,19.50
2019-04-21T10:30:58.474Z,19.50
2019-04-21T10:33:30.255Z,19.60
2019-04-21T10:36:01.366Z,19.60
2019-04-21T10:38:38.953Z,19.60
2019-04-21T10:41:05.381Z,19.60
2019-04-21T10:43:37.214Z,19.80
2019-04-21T10:46:08.774Z,19.80
2019-04-21T10:48:39.475Z,19.70
2019-04-21T10:51:11.293Z,19.90
2019-04-21T10:53:43.165Z,19.80
2019-04-21T10:56:21.894Z,19.90
2019-04-21T10:58:47.748Z,20.10
2019-04-21T11:01:23.423Z,20.30
2019-04-21T11:04:20.230Z,20.50
2019-04-21T11:06:46.320Z,20.60
2019-04-21T11:09:17.865Z,20.70
2019-04-21T11:11:50.299Z,20.80
2019-04-21T11:14:21.043Z,20.80
2019-04-21T11:16:53.396Z,20.60
2019-04-21T11:22:14.820Z,20.80
2019-04-21T11:24:45.293Z,20.80
2019-04-21T11:27:16.984Z,21.00
2019-04-21T11:29:47.584Z,21.00
2019-04-21T11:32:19.080Z,21.10
2019-04-21T11:34:49.687Z,21.40
2019-04-21T11:37:22.006Z,21.40
2019-04-21T11:40:02.693Z,21.50
2019-04-21T11:42:31.600Z,21.50
2019-04-21T11:45:02.140Z,21.60
2019-04-21T11:47:52.202Z,21.60
2019-04-21T11:50:23.267Z,21.60
2019-04-21T11:52:54.844Z,21.80
2019-04-21T11:55:27.429Z,22.10
2019-04-21T11:57:58.342Z,22.20
2019-04-21T12:00:29.486Z,22.40
2019-04-21T12:03:00.047Z,22.50
2019-04-21T12:05:30.590Z,22.60
2019-04-21T12:08:02.012Z,22.70
2019-04-21T12:10:33.367Z,22.50
2019-04-21T12:13:06.176Z,22.50
2019-04-21T12:15:36.800Z,22.60
2019-04-21T12:18:08.325Z,22.90
2019-04-21T12:23:22.689Z,22.90
2019-04-21T12:25:53.296Z,22.90
2019-04-21T12:28:23.936Z,22.80
2019-04-21T12:36:40.020Z,23.40
2019-04-21T12:39:12.814Z,23.60
2019-04-21T12:41:44.568Z,23.70
2019-04-21T12:44:15.182Z,23.90
2019-04-21T12:46:45.749Z,24.10
2019-04-21T12:49:16.284Z,24.50
2019-04-21T12:51:48.057Z,24.30
2019-04-21T12:54:19.661Z,24.10
2019-04-21T12:56:51.695Z,24.50
2019-04-21T12:59:22.292Z,24.60
2019-04-21T13:01:52.886Z,24.50
2019-04-21T13:04:23.870Z,24.50
2019-04-21T13:06:55.468Z,24.70
2019-04-21T13:09:29.193Z,25.10
2019-04-21T13:11:59.374Z,25.10
2019-04-21T13:14:29.992Z,25.70
2019-04-21T13:17:01.385Z,25.10
2019-04-21T13:19:31.980Z,24.90
2019-04-21T13:22:03.774Z,24.80
2019-04-21T13:24:35.749Z,24.70
2019-04-21T13:27:07.467Z,25.30
2019-04-21T13:29:38.708Z,25.10
2019-04-21T13:32:10.613Z,25.20
2019-04-21T13:34:42.107Z,25.70
2019-04-21T13:37:12.741Z,26.60
2019-04-21T13:40:20.434Z,26.60
2019-04-21T13:42:39.980Z,27.10
2019-04-21T13:45:08.077Z,28.50
2019-04-21T13:47:38.848Z,29.20
2019-04-21T13:50:11.162Z,29.90
2019-04-21T13:52:42.708Z,29.80
2019-04-21T13:55:13.905Z,29.60
2019-04-21T13:57:44.577Z,30.30
2019-04-21T14:00:17.110Z,30.60
2019-04-21T14:02:48.995Z,31.10
2019-04-21T14:05:20.298Z,31.10
2019-04-21T14:07:52.228Z,31.50
2019-04-21T14:10:23.879Z,31.40
2019-04-21T14:12:56.340Z,30.90
2019-04-21T14:15:28.320Z,31.30
2019-04-21T14:17:59.021Z,31.30
2019-04-21T14:20:29.545Z,31.30
2019-04-21T14:23:13.506Z,31.10
2019-04-21T14:25:32.327Z,31.40
2019-04-21T14:28:03.970Z,31.40
2019-04-21T14:30:34.682Z,31.10
2019-04-21T14:33:05.181Z,31.40
2019-04-21T14:35:36.711Z,32.00
2019-04-21T14:38:08.906Z,32.50
2019-04-21T14:40:39.454Z,33.10
2019-04-21T14:43:10.144Z,32.60
2019-04-21T14:45:48.713Z,32.40
2019-04-21T14:48:37.040Z,33.10
2019-04-21T14:51:32.966Z,32.80
2019-04-21T14:54:20.865Z,33.10
2019-04-21T14:56:51.427Z,33.30
2019-04-21T15:02:18.091Z,33.80
2019-04-21T15:04:49.292Z,33.50
2019-04-21T15:07:21.223Z,34.00
2019-04-21T15:10:02.486Z,33.80
2019-04-21T15:12:25.808Z,34.40
2019-04-21T15:14:56.379Z,33.80
2019-04-21T15:17:29.101Z,33.90
2019-04-21T15:20:04.616Z,33.20
2019-04-21T15:22:32.293Z,33.30
2019-04-21T15:25:02.967Z,34.40
2019-04-21T15:27:34.799Z,34.70
2019-04-21T15:30:06.949Z,34.00
2019-04-21T15:32:37.500Z,34.00
2019-04-21T15:35:09.190Z,33.70
2019-04-21T15:37:39.921Z,34.00
2019-04-21T15:40:18.196Z,33.90
2019-04-21T15:42:44.308Z,33.60
2019-04-21T15:45:15.153Z,34.20
2019-04-21T15:47:46.163Z,33.50
2019-04-21T15:50:20.134Z,34.10
2019-04-21T15:52:52.125Z,34.70
2019-04-21T15:55:41.150Z,34.70
2019-04-21T15:58:22.785Z,34.60
2019-04-21T16:00:58.575Z,33.60
2019-04-21T16:03:29.232Z,33.70
2019-04-21T16:06:01.288Z,34.60
2019-04-21T16:08:33.255Z,35.10
2019-04-21T16:11:07.149Z,34.60
2019-04-21T16:13:37.237Z,34.60
2019-04-21T16:16:08.532Z,34.10
2019-04-21T16:18:40.346Z,33.30
2019-04-21T16:21:11.748Z,33.20
2019-04-21T16:23:42.543Z,32.60
2019-04-21T16:26:13.120Z,32.70
2019-04-21T16:28:44.882Z,33.20
2019-04-21T16:31:16.377Z,33.50
2019-04-21T16:33:47.179Z,33.90
2019-04-21T16:36:18.467Z,34.20
2019-04-21T16:38:49.764Z,34.00
2019-04-21T16:41:20.383Z,34.20
2019-04-21T16:43:51.394Z,33.80
2019-04-21T16:46:23.148Z,33.90
2019-04-21T16:51:42.785Z,33.00
2019-04-21T16:54:26.547Z,33.20
2019-04-21T16:57:21.821Z,32.20
2019-04-21T16:59:55.083Z,32.10
2019-04-21T17:02:25.575Z,31.80
2019-04-21T17:04:58.152Z,32.10
2019-04-21T17:07:30.283Z,32.70
2019-04-21T17:10:02.413Z,32.60
2019-04-21T17:15:37.283Z,31.40
2019-04-21T17:18:16.227Z,30.80
2019-04-21T17:20:39.448Z,30.90
2019-04-21T17:22:59.731Z,29.80
2019-04-21T17:25:30.297Z,30.00
2019-04-21T17:28:01.618Z,29.70
2019-04-21T17:30:32.599Z,29.80
2019-04-21T17:33:05.574Z,29.10
2019-04-21T17:35:36.196Z,28.80
2019-04-21T17:38:07.910Z,28.50
2019-04-21T17:40:39.875Z,28.00
2019-04-21T17:43:14.151Z,28.30
2019-04-21T17:45:42.716Z,28.00
2019-04-21T17:48:15.939Z,27.40
2019-04-21T17:50:53.730Z,27.20
2019-04-21T17:56:46.384Z,26.70
2019-04-21T17:59:02.891Z,27.10
2019-04-21T18:01:37.325Z,27.00
2019-04-21T18:04:29.262Z,26.60
2019-04-21T18:07:26.399Z,25.90
2019-04-21T18:10:00.914Z,25.60
2019-04-21T18:12:32.244Z,24.70
2019-04-21T18:14:57.944Z,24.40
2019-04-21T18:17:18.539Z,24.00
2019-04-21T18:19:51.773Z,23.80
2019-04-21T18:22:38.618Z,23.90
2019-04-21T18:25:15.363Z,23.70
2019-04-21T18:27:42.714Z,23.70
2019-04-21T18:30:48.860Z,23.60
2019-04-21T18:33:26.640Z,23.20
2019-04-21T18:36:13.455Z,23.20
2019-04-21T18:39:13.985Z,23.00
2019-04-21T18:41:29.270Z,23.00
2019-04-21T18:44:29.850Z,23.00
2019-04-21T18:49:21.483Z,22.80
2019-04-21T18:52:02.558Z,22.60
2019-04-21T18:54:44.408Z,22.60
2019-04-21T18:57:08.265Z,22.50
2019-04-21T18:59:37.194Z,22.30
2019-04-21T19:02:09.595Z,22.40
2019-04-21T19:04:40.520Z,22.50
2019-04-21T19:07:19.953Z,22.30
2019-04-21T19:10:14.461Z,22.20
2019-04-21T19:14:58.102Z,21.70
2019-04-21T19:20:11.764Z,22.30
2019-04-21T19:22:42.034Z,22.30
2019-04-21T19:25:16.497Z,22.10
2019-04-21T19:27:50.275Z,21.80
2019-04-21T19:30:33.611Z,21.80
2019-04-21T19:32:54.490Z,22.10
2019-04-21T19:35:10.742Z,22.20
2019-04-21T19:40:47.095Z,22.10
2019-04-21T19:43:17.077Z,22.20
2019-04-21T19:45:48.455Z,22.00
2019-04-21T19:48:24.024Z,21.70
2019-04-21T19:51:00.485Z,21.00
2019-04-21T19:53:25.449Z,20.50
2019-04-21T19:55:45.758Z,20.60
2019-04-21T19:58:21.979Z,20.70
2019-04-21T20:00:52.419Z,20.70
2019-04-21T20:03:20.997Z,20.40
2019-04-21T20:06:00.964Z,20.20
2019-04-21T20:08:37.500Z,20.10
2019-04-21T20:11:17.818Z,20.00
2019-04-21T20:14:04.242Z,20.00
2019-04-21T20:16:21.274Z,19.90
2019-04-21T20:18:41.724Z,20.00
2019-04-21T20:21:05.961Z,20.00
2019-04-21T20:23:39.520Z,20.00
2019-04-21T20:26:10.419Z,20.00
2019-04-21T20:28:49.296Z,19.50
2019-04-21T20:31:30.116Z,19.30
2019-04-21T20:34:07.871Z,19.20
2019-04-21T20:36:42.908Z,19.00
2019-04-21T20:38:57.945Z,19.20
2019-04-21T20:41:35.319Z,19.30
2019-04-21T20:44:11.866Z,19.00
2019-04-21T20:46:38.627Z,18.80
2019-04-21T20:49:14.451Z,18.70
2019-04-21T20:51:41.789Z,18.80
2019-04-21T20:54:20.826Z,19.00
2019-04-21T20:56:51.501Z,19.20
2019-04-21T20:59:19.720Z,19.10
2019-04-21T21:01:55.387Z,19.00
2019-04-21T21:04:22.451Z,19.00
2019-04-21T21:07:01.972Z,18.90
2019-04-21T21:09:32.597Z,19.00
2019-04-21T21:12:19.668Z,18.70
2019-04-21T21:14:36.335Z,18.40
2019-04-21T21:17:19.649Z,18.30
2019-04-21T21:19:45.730Z,18.30
2019-04-21T21:22:09.809Z,18.50
2019-04-21T21:24:46.394Z,18.60
2019-04-21T21:27:15.576Z,18.80
2019-04-21T21:29:50.192Z,18.60
2019-04-21T21:32:20.754Z,18.40
2019-04-21T21:34:58.240Z,18.40
2019-04-21T21:37:35.069Z,18.30
2019-04-21T21:40:08.258Z,18.10
2019-04-21T21:42:25.321Z,18.10
2019-04-21T21:44:54.525Z,18.10
2019-04-21T21:47:39.371Z,18.30
2019-04-21T21:50:04.760Z,18.30
2019-04-21T21:52:42.365Z,18.30
2019-04-21T21:54:56.343Z,18.00
2019-04-21T21:57:28.308Z,17.80
2019-04-21T22:00:04.744Z,17.90
2019-04-21T22:02:36.045Z,17.90
2019-04-21T22:05:09.444Z,18.10
2019-04-21T22:07:37.102Z,18.10
2019-04-21T22:13:04.019Z,17.60
2019-04-21T22:15:31.960Z,17.50
2019-04-21T22:18:19.346Z,17.50
2019-04-21T22:20:50.292Z,17.40
2019-04-21T22:23:11.433Z,17.10
2019-04-21T22:25:41.691Z,17.10
2019-04-21T22:28:09.812Z,17.10
2019-04-21T22:30:48.249Z,17.00
2019-04-21T22:33:19.898Z,16.80
2019-04-21T22:35:55.207Z,16.60
2019-04-21T22:38:38.592Z,16.90
2019-04-21T22:41:08.849Z,16.90
2019-04-21T22:43:32.391Z,16.60
2019-04-21T22:45:57.380Z,16.50
2019-04-21T22:48:28.944Z,16.40
2019-04-21T22:51:00.597Z,16.40
2019-04-21T22:53:36.816Z,16.40
2019-04-21T22:56:12.621Z,16.60
2019-04-21T23:01:40.551Z,16.50
2019-04-21T23:04:05.290Z,16.20
2019-04-21T23:06:38.908Z,16.10
2019-04-21T23:09:10.878Z,16.10
2019-04-21T23:11:47.018Z,16.00
2019-04-21T23:14:15.774Z,15.90
2019-04-21T23:19:46.012Z,15.80
2019-04-21T23:22:27.928Z,15.90
2019-04-21T23:24:57.543Z,16.00
2019-04-21T23:27:29.625Z,16.00
2019-04-21T23:30:06.460Z,15.90
2019-04-21T23:32:30.531Z,15.70
2019-04-21T23:34:49.564Z,15.60
2019-04-21T23:37:24.139Z,15.50
2019-04-21T23:40:02.692Z,15.50
2019-04-21T23:42:31.897Z,15.40
2019-04-21T23:44:59.522Z,15.50
2019-04-21T23:47:44.237Z,15.40
2019-04-21T23:50:15.970Z,15.30
2019-04-21T23:52:35.328Z,15.40
2019-04-21T23:55:07.527Z,15.40
2019-04-21T23:57:43.264Z,15.50
